Time;durP1;ratioP1;P1;durP2;ratioP2;P2;SDS_P1;SDS_P2;PMS_P1;PMS_P2;Temp;Humidity;BMP_temperature;BMP_pressure;BME280_temperature;BME280_humidity;BME280_pressure;Samples;Min_cycle;Max_cycle;Signal;HPM_P1;HPM_P2
2021/12/09 00:01:07;;;;;;;3.00;1.98;;;3.40;99.90;;;;;;5081834;28;20236;-66
2021/12/09 00:03:39;;;;;;;6.30;2.40;;;3.40;99.90;;;;;;5078888;28;20218;-66
2021/12/09 00:06:07;;;;;;;1.70;1.60;;;3.40;99.90;;;;;;5082311;28;20609;-67
2021/12/09 00:08:34;;;;;;;1.83;1.40;;;3.40;99.90;;;;;;5082048;28;20205;-66
2021/12/09 00:11:02;;;;;;;2.65;2.45;;;3.40;99.90;;;;;;5084315;28;20197;-66
2021/12/09 00:13:29;;;;;;;2.17;1.63;;;3.40;99.90;;;;;;5083344;28;20211;-65
2021/12/09 00:15:57;;;;;;;3.30;2.35;;;3.40;99.90;;;;;;5080608;28;20294;-66
2021/12/09 00:18:24;;;;;;;1.67;1.58;;;3.40;99.90;;;;;;5080292;28;20206;-65
2021/12/09 00:20:53;;;;;;;1.67;1.40;;;3.40;99.90;;;;;;5073746;28;20263;-66
2021/12/09 00:23:20;;;;;;;5.28;1.65;;;3.50;99.90;;;;;;5072868;28;20211;-66
2021/12/09 00:25:47;;;;;;;4.05;1.52;;;3.50;99.90;;;;;;5072537;28;20223;-66
2021/12/09 00:28:13;;;;;;;1.52;1.00;;;3.40;99.90;;;;;;5071791;28;20805;-66
2021/12/09 00:30:40;;;;;;;2.80;1.25;;;3.40;99.90;;;;;;5071571;28;20263;-66
2021/12/09 00:33:08;;;;;;;1.30;1.20;;;3.40;99.90;;;;;;5068969;28;20258;-67
2021/12/09 00:35:44;;;;;;;1.60;1.60;;;3.30;99.90;;;;;;5076297;28;20281;-66
2021/12/09 00:38:21;;;;;;;2.67;1.17;;;3.30;99.90;;;;;;5072319;28;20364;-66
2021/12/09 00:40:48;;;;;;;0.80;0.80;;;3.30;99.90;;;;;;5077245;28;20287;-66
2021/12/09 00:43:17;;;;;;;3.28;1.73;;;3.40;99.90;;;;;;5065699;28;20284;-66
2021/12/09 00:45:44;;;;;;;2.95;1.83;;;3.40;99.90;;;;;;5065118;28;20221;-65
2021/12/09 00:48:11;;;;;;;2.78;1.40;;;3.50;99.90;;;;;;5069024;28;20201;-66
2021/12/09 00:50:38;;;;;;;2.35;1.08;;;3.50;99.90;;;;;;5067249;28;20195;-66
2021/12/09 00:53:04;;;;;;;1.20;1.13;;;3.50;99.90;;;;;;5074125;28;20292;-66
2021/12/09 00:55:32;;;;;;;1.05;0.93;;;3.50;99.90;;;;;;5075565;28;20257;-66
2021/12/09 00:57:59;;;;;;;2.58;1.30;;;3.50;99.90;;;;;;5061759;28;20235;-66
2021/12/09 01:00:27;;;;;;;2.30;1.55;;;3.40;99.90;;;;;;5068010;28;20274;-66
2021/12/09 01:02:53;;;;;;;1.33;1.23;;;3.40;99.90;;;;;;5067799;28;20207;-66
2021/12/09 01:05:20;;;;;;;6.70;2.22;;;3.30;99.90;;;;;;5066995;28;20221;-66
2021/12/09 01:07:47;;;;;;;3.58;1.55;;;3.20;99.90;;;;;;5061989;28;20291;-66
2021/12/09 01:10:15;;;;;;;1.70;1.20;;;3.20;99.90;;;;;;5067680;28;20214;-66
2021/12/09 01:12:44;;;;;;;2.40;1.55;;;3.10;99.90;;;;;;5065795;28;20197;-66
2021/12/09 01:15:13;;;;;;;1.80;1.25;;;3.10;99.90;;;;;;5067604;28;20221;-65
2021/12/09 01:17:40;;;;;;;2.65;1.33;;;3.10;99.90;;;;;;5055161;28;20259;-66
2021/12/09 01:20:10;;;;;;;1.13;0.73;;;3.10;99.90;;;;;;5067400;28;20206;-65
2021/12/09 01:22:40;;;;;;;0.60;0.50;;;3.20;99.90;;;;;;5065591;28;20201;-66
2021/12/09 01:25:09;;;;;;;1.98;1.65;;;3.10;99.90;;;;;;5065135;28;20252;-65
2021/12/09 01:27:37;;;;;;;4.53;2.25;;;3.20;99.90;;;;;;5068192;28;20202;-66
2021/12/09 01:30:12;;;;;;;0.40;0.40;;;3.20;99.90;;;;;;5067236;28;20205;-66
2021/12/09 01:32:42;;;;;;;8.02;1.40;;;3.20;99.90;;;;;;5070804;28;20201;-66
2021/12/09 01:35:09;;;;;;;0.98;0.85;;;3.20;99.90;;;;;;5065842;28;20243;-65
2021/12/09 01:37:38;;;;;;;0.77;0.77;;;3.30;99.90;;;;;;5066442;28;20209;-66
2021/12/09 01:40:07;;;;;;;2.55;1.30;;;3.30;99.90;;;;;;5066816;28;20237;-66
2021/12/09 01:42:33;;;;;;;0.93;0.93;;;3.30;99.90;;;;;;5055305;28;20293;-66
2021/12/09 01:45:00;;;;;;;2.10;1.45;;;3.40;99.90;;;;;;5064953;28;20267;-66
2021/12/09 01:47:28;;;;;;;4.50;2.17;;;3.30;99.90;;;;;;5065464;28;20207;-66
2021/12/09 01:49:55;;;;;;;2.00;1.15;;;3.30;99.90;;;;;;5065621;28;20215;-66
2021/12/09 01:52:22;;;;;;;1.05;1.05;;;3.30;99.90;;;;;;5079272;28;20204;-67
2021/12/09 01:54:48;;;;;;;1.80;1.35;;;3.40;99.90;;;;;;5060236;28;20286;-66
2021/12/09 01:57:15;;;;;;;1.65;1.55;;;3.40;99.90;;;;;;5064063;28;20607;-66
2021/12/09 01:59:42;;;;;;;4.85;1.63;;;3.50;99.90;;;;;;5066692;28;20200;-66
2021/12/09 02:02:08;;;;;;;1.33;1.25;;;3.60;99.90;;;;;;5067908;28;20269;-66
2021/12/09 02:04:36;;;;;;;3.30;1.33;;;3.70;99.90;;;;;;5066213;28;20366;-66
2021/12/09 02:07:04;;;;;;;5.22;1.33;;;3.70;99.90;;;;;;5066544;28;20212;-66
2021/12/09 02:09:30;;;;;;;1.67;1.52;;;3.70;99.90;;;;;;5059636;28;20203;-66
2021/12/09 02:11:57;;;;;;;0.85;0.85;;;3.70;99.90;;;;;;5059779;28;20646;-66
2021/12/09 02:14:24;;;;;;;2.45;1.00;;;3.70;99.90;;;;;;5065598;28;20202;-66
2021/12/09 02:16:50;;;;;;;1.40;1.13;;;3.70;99.90;;;;;;5048039;28;20298;-66
2021/12/09 02:19:17;;;;;;;7.72;1.73;;;3.70;99.90;;;;;;5054400;28;20210;-65
2021/12/09 02:21:45;;;;;;;0.93;0.85;;;3.70;99.90;;;;;;5070154;28;20209;-65
2021/12/09 02:24:16;;;;;;;1.88;1.42;;;3.70;99.90;;;;;;5072908;28;20331;-65
2021/12/09 02:26:45;;;;;;;0.98;0.98;;;3.70;99.90;;;;;;5059143;28;20204;-65
2021/12/09 02:29:14;;;;;;;1.42;1.35;;;3.70;99.90;;;;;;5066551;28;20269;-65
2021/12/09 02:31:42;;;;;;;1.23;1.08;;;3.60;99.90;;;;;;5076594;28;20544;-65
2021/12/09 02:34:10;;;;;;;2.15;1.60;;;3.60;99.90;;;;;;5066407;28;20226;-65
2021/12/09 02:36:40;;;;;;;2.70;1.63;;;3.50;99.90;;;;;;5058891;28;20695;-65
2021/12/09 02:39:11;;;;;;;1.30;1.20;;;3.40;99.90;;;;;;5049093;28;20218;-66
2021/12/09 02:41:39;;;;;;;2.00;1.90;;;3.30;99.90;;;;;;5061883;28;20623;-66
2021/12/09 02:44:08;;;;;;;1.65;1.30;;;3.20;99.90;;;;;;5070344;28;20735;-66
2021/12/09 02:46:38;;;;;;;1.80;1.70;;;3.10;99.90;;;;;;5069466;28;20561;-66
2021/12/09 02:49:06;;;;;;;5.80;1.65;;;3.10;99.90;;;;;;5070703;28;20205;-66
2021/12/09 02:51:33;;;;;;;1.77;1.67;;;3.00;99.90;;;;;;5061719;28;20264;-65
2021/12/09 02:54:00;;;;;;;4.00;1.60;;;3.00;99.90;;;;;;5067125;28;20206;-65
2021/12/09 02:56:28;;;;;;;1.23;1.10;;;2.80;99.90;;;;;;5061379;28;20292;-65
2021/12/09 02:58:55;;;;;;;2.22;2.03;;;2.70;99.90;;;;;;5052713;28;20235;-66
2021/12/09 03:01:24;;;;;;;4.70;1.55;;;2.70;99.90;;;;;;5066113;28;20703;-66
2021/12/09 03:03:55;;;;;;;1.90;1.52;;;2.60;99.90;;;;;;5050367;28;20526;-65
2021/12/09 03:06:29;;;;;;;1.52;1.42;;;2.50;99.90;;;;;;5067160;28;20319;-67
2021/12/09 03:08:56;;;;;;;2.03;1.13;;;2.50;99.90;;;;;;5052206;28;20239;-65
2021/12/09 03:11:24;;;;;;;1.05;0.95;;;2.40;99.90;;;;;;5057574;28;20221;-65
2021/12/09 03:13:53;;;;;;;1.85;1.75;;;2.40;99.90;;;;;;5082852;28;20228;-66
2021/12/09 03:16:22;;;;;;;3.33;1.52;;;2.40;99.90;;;;;;5069474;28;20220;-65
2021/12/09 03:18:51;;;;;;;1.25;1.15;;;2.30;99.90;;;;;;5068989;28;20293;-65
2021/12/09 03:21:19;;;;;;;1.58;1.48;;;2.30;99.90;;;;;;5064571;28;20210;-66
2021/12/09 03:23:46;;;;;;;2.22;2.13;;;2.20;99.90;;;;;;5069254;28;20573;-65
2021/12/09 03:26:14;;;;;;;1.33;1.23;;;2.20;99.90;;;;;;5064674;28;20641;-66
2021/12/09 03:28:41;;;;;;;1.95;1.45;;;2.20;99.90;;;;;;5064268;28;20208;-65
2021/12/09 03:31:09;;;;;;;1.77;1.67;;;2.10;99.90;;;;;;5055026;28;20661;-66
2021/12/09 03:33:36;;;;;;;1.83;1.63;;;2.10;99.90;;;;;;5062036;28;20515;-66
2021/12/09 03:36:05;;;;;;;2.40;2.03;;;2.10;99.90;;;;;;5065023;28;20287;-65
2021/12/09 03:38:32;;;;;;;1.00;0.85;;;2.00;99.90;;;;;;5070025;28;20212;-65
2021/12/09 03:41:00;;;;;;;1.52;1.42;;;2.00;99.90;;;;;;5068411;28;20215;-66
2021/12/09 03:43:27;;;;;;;1.73;1.58;;;2.00;99.90;;;;;;5061686;28;20567;-66
2021/12/09 03:45:55;;;;;;;1.70;1.60;;;1.90;99.90;;;;;;5066371;28;20231;-66
2021/12/09 03:48:24;;;;;;;1.38;1.30;;;1.90;99.90;;;;;;5059749;28;20248;-65
2021/12/09 03:50:52;;;;;;;1.00;0.90;;;1.90;99.90;;;;;;5073122;28;20219;-66
2021/12/09 03:53:18;;;;;;;2.92;2.67;;;1.80;99.90;;;;;;5058206;28;20214;-65
2021/12/09 03:55:46;;;;;;;3.35;2.40;;;1.90;99.90;;;;;;5069468;28;20259;-66
2021/12/09 03:58:13;;;;;;;12.45;2.80;;;1.90;99.90;;;;;;5064879;28;20204;-65
2021/12/09 04:00:40;;;;;;;8.32;1.65;;;1.90;99.90;;;;;;5065518;28;20743;-65
2021/12/09 04:03:07;;;;;;;1.02;0.90;;;1.80;99.90;;;;;;5051432;28;20722;-67
2021/12/09 04:05:36;;;;;;;1.15;0.95;;;1.80;99.90;;;;;;5064201;28;20366;-67
2021/12/09 04:08:03;;;;;;;1.00;1.00;;;1.80;99.90;;;;;;5068228;28;20260;-66
2021/12/09 04:10:31;;;;;;;1.40;1.30;;;1.80;99.90;;;;;;5068212;28;20581;-67
2021/12/09 04:12:58;;;;;;;2.25;1.60;;;1.70;99.90;;;;;;5063411;28;20214;-66
2021/12/09 04:15:25;;;;;;;1.77;1.67;;;1.70;99.90;;;;;;5067939;28;20452;-66
2021/12/09 04:17:52;;;;;;;2.17;1.98;;;1.70;99.90;;;;;;5061965;28;20203;-67
2021/12/09 04:20:20;;;;;;;2.75;1.77;;;1.70;99.90;;;;;;5062086;28;20216;-66
2021/12/09 04:22:49;;;;;;;1.25;1.15;;;1.70;99.90;;;;;;5068787;28;20244;-64
2021/12/09 04:25:17;;;;;;;2.83;1.90;;;1.60;99.90;;;;;;5056268;28;20221;-65
2021/12/09 04:27:44;;;;;;;1.65;1.27;;;1.60;99.90;;;;;;5068492;28;20212;-67
2021/12/09 04:30:13;;;;;;;1.30;1.20;;;1.60;99.90;;;;;;5066315;28;20254;-65
2021/12/09 04:32:40;;;;;;;1.40;1.30;;;1.60;99.90;;;;;;5073829;28;20254;-66
2021/12/09 04:35:11;;;;;;;1.90;1.20;;;1.60;99.90;;;;;;5078063;28;20224;-66
2021/12/09 04:37:39;;;;;;;1.00;1.00;;;1.60;99.90;;;;;;5060550;28;20299;-66
2021/12/09 04:40:09;;;;;;;2.33;2.13;;;1.60;99.90;;;;;;5050822;28;20237;-66
2021/12/09 04:42:37;;;;;;;2.28;2.08;;;1.60;99.90;;;;;;5066656;28;20628;-65
2021/12/09 04:45:04;;;;;;;2.38;1.52;;;1.60;99.90;;;;;;5061995;28;20235;-65
2021/12/09 04:47:31;;;;;;;1.73;1.60;;;1.60;99.90;;;;;;5060190;28;20257;-65
2021/12/09 04:49:58;;;;;;;1.60;1.50;;;1.60;99.90;;;;;;5063195;28;20206;-65
2021/12/09 04:52:25;;;;;;;5.65;1.90;;;1.50;99.90;;;;;;5055304;28;20564;-65
2021/12/09 04:54:52;;;;;;;4.07;2.50;;;1.50;99.90;;;;;;5059162;28;20289;-65
2021/12/09 04:57:20;;;;;;;3.78;1.73;;;1.50;99.90;;;;;;5051975;28;20200;-66
2021/12/09 04:59:48;;;;;;;11.82;1.63;;;1.50;99.90;;;;;;5056220;28;20222;-66
2021/12/09 05:02:24;;;;;;;2.15;2.05;;;1.50;99.90;;;;;;5050220;28;20264;-66
2021/12/09 05:04:51;;;;;;;2.28;2.00;;;1.50;99.90;;;;;;5072850;28;20815;-66
2021/12/09 05:07:18;;;;;;;1.35;1.25;;;1.50;99.90;;;;;;5071292;28;20235;-66
2021/12/09 05:09:50;;;;;;;2.40;2.30;;;1.50;99.90;;;;;;5077111;28;20604;-66
2021/12/09 05:12:17;;;;;;;2.60;1.75;;;1.50;99.90;;;;;;5068637;28;20199;-66
2021/12/09 05:14:45;;;;;;;2.58;1.75;;;1.50;99.90;;;;;;5063853;28;20252;-66
2021/12/09 05:17:12;;;;;;;9.45;2.67;;;1.50;99.90;;;;;;5069091;28;20267;-65
2021/12/09 05:19:39;;;;;;;1.48;1.38;;;1.50;99.90;;;;;;5065110;28;20224;-66
2021/12/09 05:22:07;;;;;;;2.60;2.40;;;1.60;99.90;;;;;;5056073;28;20508;-66
2021/12/09 05:24:35;;;;;;;2.22;2.10;;;1.60;99.90;;;;;;5070164;28;20523;-66
2021/12/09 05:27:03;;;;;;;2.55;1.70;;;1.70;99.90;;;;;;5067680;28;20232;-65
2021/12/09 05:29:36;;;;;;;3.40;2.40;;;1.70;99.90;;;;;;5064779;28;20210;-65
2021/12/09 05:32:11;;;;;;;4.38;3.67;;;1.70;99.90;;;;;;5061340;28;20773;-65
2021/12/09 05:34:41;;;;;;;1.75;1.60;;;1.70;99.90;;;;;;5056785;28;20780;-65
2021/12/09 05:37:10;;;;;;;1.38;1.13;;;1.70;99.90;;;;;;5063358;28;20269;-65
2021/12/09 05:39:37;;;;;;;2.13;2.03;;;1.60;99.90;;;;;;5061802;28;20222;-67
2021/12/09 05:42:05;;;;;;;1.40;1.30;;;1.60;99.90;;;;;;5059435;28;20287;-66
2021/12/09 05:44:32;;;;;;;3.22;2.08;;;1.70;99.90;;;;;;5057005;28;20693;-65
2021/12/09 05:46:59;;;;;;;3.50;2.20;;;1.70;99.90;;;;;;5061904;28;20226;-66
2021/12/09 05:49:27;;;;;;;1.20;1.10;;;1.60;99.90;;;;;;5067463;28;20645;-66
2021/12/09 05:51:54;;;;;;;2.47;1.50;;;1.60;99.90;;;;;;5068449;28;20211;-66
2021/12/09 05:54:21;;;;;;;6.00;1.98;;;1.60;99.90;;;;;;5063253;28;20196;-66
2021/12/09 05:56:47;;;;;;;1.45;1.35;;;1.70;99.90;;;;;;5085350;22;20242;-65
2021/12/09 05:59:14;;;;;;;2.22;2.13;;;1.70;99.90;;;;;;5082403;28;21379;-66
2021/12/09 06:01:41;;;;;;;1.30;0.77;;;1.70;99.90;;;;;;5083721;28;20207;-65
2021/12/09 06:04:10;;;;;;;1.55;1.42;;;1.70;99.90;;;;;;5085961;28;20611;-68
2021/12/09 06:06:40;;;;;;;1.23;1.15;;;1.70;99.90;;;;;;5080783;28;20230;-66
2021/12/09 06:09:09;;;;;;;3.03;1.10;;;1.60;99.90;;;;;;5075821;28;20270;-65
2021/12/09 06:11:36;;;;;;;4.53;1.30;;;1.60;99.90;;;;;;5076408;28;20543;-67
2021/12/09 06:14:03;;;;;;;0.90;0.90;;;1.60;99.90;;;;;;5081252;28;20264;-65
2021/12/09 06:16:30;;;;;;;1.77;1.67;;;1.60;99.90;;;;;;5087798;28;20263;-67
2021/12/09 06:18:57;;;;;;;4.53;3.28;;;1.60;99.90;;;;;;5075031;28;20201;-65
2021/12/09 06:21:27;;;;;;;1.08;0.98;;;1.60;99.90;;;;;;5083547;28;20203;-65
2021/12/09 06:23:55;;;;;;;3.92;1.77;;;1.50;99.90;;;;;;5094644;28;20639;-68
2021/12/09 06:26:23;;;;;;;3.00;2.63;;;1.50;99.90;;;;;;5088398;28;20688;-67
2021/12/09 06:28:50;;;;;;;3.63;1.60;;;1.50;99.90;;;;;;5081453;28;20660;-66
2021/12/09 06:31:17;;;;;;;2.00;1.75;;;1.50;99.90;;;;;;5089904;28;20623;-68
2021/12/09 06:33:44;;;;;;;3.65;2.50;;;1.50;99.90;;;;;;5088795;28;20214;-67
2021/12/09 06:36:10;;;;;;;2.17;1.75;;;1.50;99.90;;;;;;5090040;28;20227;-67
2021/12/09 06:38:37;;;;;;;1.85;1.45;;;1.60;99.90;;;;;;5073170;28;20675;-67
2021/12/09 06:41:05;;;;;;;1.35;0.80;;;1.60;99.90;;;;;;5076076;28;20207;-67
2021/12/09 06:43:32;;;;;;;3.80;1.45;;;1.60;99.90;;;;;;5085041;28;20263;-68
2021/12/09 06:45:59;;;;;;;1.02;0.90;;;1.50;99.90;;;;;;5081731;28;20223;-66
2021/12/09 06:48:26;;;;;;;3.95;2.10;;;1.50;99.90;;;;;;5085718;28;20219;-65
2021/12/09 06:50:53;;;;;;;2.47;2.25;;;1.50;99.90;;;;;;5071902;28;20273;-67
2021/12/09 06:53:20;;;;;;;1.20;1.20;;;1.40;99.90;;;;;;5080323;28;20201;-67
2021/12/09 06:55:46;;;;;;;4.97;2.05;;;1.40;99.90;;;;;;5091517;28;20237;-67
2021/12/09 06:58:15;;;;;;;4.80;2.58;;;1.40;99.90;;;;;;5072201;28;20241;-68
2021/12/09 07:00:46;;;;;;;2.58;1.67;;;1.50;99.90;;;;;;5080066;28;20201;-66
2021/12/09 07:03:16;;;;;;;4.43;2.88;;;1.50;99.90;;;;;;5086980;28;20211;-67
2021/12/09 07:05:43;;;;;;;2.45;1.73;;;1.40;99.90;;;;;;5073441;28;20716;-65
2021/12/09 07:08:10;;;;;;;1.55;1.45;;;1.50;99.90;;;;;;5085627;28;20207;-64
2021/12/09 07:10:36;;;;;;;2.85;2.20;;;1.50;99.90;;;;;;5071712;28;20214;-66
2021/12/09 07:13:05;;;;;;;1.52;1.42;;;1.40;99.90;;;;;;5072061;28;20210;-65
2021/12/09 07:15:33;;;;;;;1.83;1.73;;;1.30;99.90;;;;;;5072141;28;20279;-66
2021/12/09 07:18:01;;;;;;;3.35;2.30;;;1.30;99.90;;;;;;5083484;28;20206;-67
2021/12/09 07:20:28;;;;;;;3.22;2.42;;;1.30;99.90;;;;;;5081121;28;20582;-67
2021/12/09 07:22:55;;;;;;;7.70;2.38;;;1.30;99.90;;;;;;5071799;28;20209;-66
2021/12/09 07:25:24;;;;;;;1.40;1.30;;;1.30;99.90;;;;;;5071680;28;20227;-65
2021/12/09 07:27:51;;;;;;;1.30;1.27;;;1.20;99.90;;;;;;5078593;28;20204;-65
2021/12/09 07:30:19;;;;;;;6.47;2.05;;;1.20;99.90;;;;;;5082545;28;20260;-67
2021/12/09 07:32:48;;;;;;;2.67;1.98;;;1.10;99.90;;;;;;5076869;28;20693;-66
2021/12/09 07:35:16;;;;;;;5.22;2.17;;;1.10;99.90;;;;;;5091213;28;20284;-66
2021/12/09 07:37:44;;;;;;;1.52;1.20;;;1.10;99.90;;;;;;5072840;28;20211;-67
2021/12/09 07:40:13;;;;;;;1.23;1.13;;;1.20;99.90;;;;;;5071003;28;20274;-67
2021/12/09 07:42:40;;;;;;;2.85;2.55;;;1.20;99.90;;;;;;5070936;28;20627;-67
2021/12/09 07:45:09;;;;;;;2.13;1.92;;;1.30;99.90;;;;;;5078068;28;20230;-67
2021/12/09 07:47:35;;;;;;;2.33;2.13;;;1.40;99.90;;;;;;5077224;28;20655;-67
2021/12/09 07:50:05;;;;;;;8.27;2.28;;;1.40;99.90;;;;;;5091144;28;20209;-66
2021/12/09 07:52:32;;;;;;;1.42;1.20;;;1.40;99.90;;;;;;5071210;28;20258;-68
2021/12/09 07:54:59;;;;;;;2.33;1.83;;;1.50;99.90;;;;;;5070917;28;20688;-66
2021/12/09 07:57:25;;;;;;;4.00;2.25;;;1.50;99.90;;;;;;5071374;28;20198;-68
2021/12/09 07:59:52;;;;;;;5.15;2.65;;;1.50;99.90;;;;;;5084242;28;20214;-66
2021/12/09 08:02:19;;;;;;;1.92;1.73;;;1.60;99.90;;;;;;5090956;28;20203;-65
2021/12/09 08:04:45;;;;;;;3.35;3.05;;;1.60;99.90;;;;;;5090306;28;20201;-65
2021/12/09 08:07:13;;;;;;;2.50;2.30;;;1.70;99.90;;;;;;5070539;28;20224;-65
2021/12/09 08:09:40;;;;;;;1.90;1.80;;;1.70;99.90;;;;;;5072035;28;20209;-65
2021/12/09 08:12:07;;;;;;;3.13;2.83;;;1.70;99.90;;;;;;5082970;28;20219;-66
2021/12/09 08:14:34;;;;;;;4.82;2.30;;;1.80;99.90;;;;;;5076172;28;20250;-65
2021/12/09 08:17:12;;;;;;;6.35;2.05;;;2.10;99.90;;;;;;5088335;28;20267;-66
2021/12/09 08:19:39;;;;;;;2.60;2.38;;;2.20;99.90;;;;;;5087520;28;20205;-65
2021/12/09 08:22:05;;;;;;;3.10;1.70;;;2.40;99.90;;;;;;5080726;28;20213;-66
2021/12/09 08:24:33;;;;;;;2.60;2.15;;;2.60;99.90;;;;;;5085830;28;20257;-66
2021/12/09 08:27:00;;;;;;;47.65;32.72;;;2.60;99.90;;;;;;5089142;28;20223;-67
2021/12/09 08:29:27;;;;;;;4.55;2.67;;;2.60;99.90;;;;;;5089506;28;20216;-66
2021/12/09 08:31:53;;;;;;;4.57;2.63;;;2.70;99.90;;;;;;5090501;28;20205;-67
2021/12/09 08:34:20;;;;;;;3.58;3.38;;;2.70;99.90;;;;;;5077414;28;20210;-67
2021/12/09 08:36:47;;;;;;;2.13;2.03;;;2.60;99.90;;;;;;5089815;28;20247;-66
2021/12/09 08:39:13;;;;;;;4.22;2.95;;;2.60;99.90;;;;;;5085914;28;20643;-67
2021/12/09 08:41:43;;;;;;;3.35;3.05;;;2.50;99.90;;;;;;5090510;28;20617;-66
2021/12/09 08:44:10;;;;;;;2.40;2.20;;;2.40;99.90;;;;;;5085875;28;20681;-65
2021/12/09 08:46:37;;;;;;;2.97;2.78;;;2.40;99.90;;;;;;5088853;28;20627;-66
2021/12/09 08:49:04;;;;;;;2.35;2.15;;;2.50;99.90;;;;;;5090117;28;20282;-67
2021/12/09 08:51:31;;;;;;;1.70;1.60;;;2.60;99.90;;;;;;5089888;28;20634;-67
2021/12/09 08:53:58;;;;;;;3.65;2.40;;;2.80;99.90;;;;;;5079534;28;20609;-67
2021/12/09 08:56:25;;;;;;;2.60;2.40;;;3.00;99.90;;;;;;5088711;28;20589;-67
2021/12/09 08:58:53;;;;;;;1.55;1.45;;;3.10;99.90;;;;;;5084229;28;20739;-67
2021/12/09 09:01:20;;;;;;;1.88;1.77;;;3.30;99.90;;;;;;5084116;28;20669;-68
2021/12/09 09:03:47;;;;;;;2.55;1.20;;;3.40;99.90;;;;;;5076690;28;20216;-68
2021/12/09 09:06:13;;;;;;;2.50;2.30;;;3.60;99.90;;;;;;5083096;28;20792;-67
2021/12/09 09:08:40;;;;;;;4.00;1.77;;;3.60;99.90;;;;;;5088969;28;20209;-68
2021/12/09 09:11:07;;;;;;;2.25;2.15;;;3.80;99.90;;;;;;5076220;28;20257;-66
2021/12/09 09:13:35;;;;;;;4.25;3.20;;;3.80;99.90;;;;;;5069098;28;20740;-69
2021/12/09 09:16:03;;;;;;;6.68;3.42;;;3.90;99.90;;;;;;5087045;28;20726;-67
2021/12/09 09:18:29;;;;;;;3.25;2.88;;;4.00;99.90;;;;;;5084072;28;20273;-68
2021/12/09 09:20:56;;;;;;;4.88;3.63;;;4.10;99.90;;;;;;5069286;28;20586;-68
2021/12/09 09:23:23;;;;;;;4.43;3.72;;;4.30;99.90;;;;;;5076720;28;20209;-68
2021/12/09 09:25:50;;;;;;;5.30;3.67;;;4.40;99.90;;;;;;5074694;28;20225;-65
2021/12/09 09:28:17;;;;;;;77.20;47.10;;;4.50;99.90;;;;;;5080189;28;20592;-69
2021/12/09 09:30:52;;;;;;;8.07;4.43;;;4.60;99.90;;;;;;5085820;28;20193;-66
2021/12/09 09:33:23;;;;;;;5.63;3.22;;;4.80;99.90;;;;;;5079732;28;20705;-67
2021/12/09 09:35:50;;;;;;;2.80;2.20;;;4.90;99.90;;;;;;5068438;28;20767;-67
2021/12/09 09:38:19;;;;;;;1.98;1.77;;;5.00;99.90;;;;;;5068518;28;20258;-66
2021/12/09 09:40:50;;;;;;;7.20;2.60;;;5.00;99.90;;;;;;5081995;28;20918;-66
2021/12/09 09:43:31;;;;;;;3.38;2.08;;;5.10;99.90;;;;;;5081661;28;20242;-65
2021/12/09 09:46:01;;;;;;;2.25;2.15;;;5.20;99.90;;;;;;5086384;28;20227;-66
2021/12/09 09:48:29;;;;;;;6.00;2.58;;;5.30;99.90;;;;;;5087226;28;20202;-67
2021/12/09 09:50:57;;;;;;;6.75;2.85;;;5.40;99.90;;;;;;5083756;28;20740;-66
2021/12/09 09:53:24;;;;;;;3.05;1.63;;;5.40;99.90;;;;;;5080332;28;20258;-69
2021/12/09 09:55:51;;;;;;;5.00;1.80;;;5.40;99.90;;;;;;5080614;28;20237;-67
2021/12/09 09:58:18;;;;;;;3.55;2.00;;;5.50;99.90;;;;;;5087057;28;20206;-68
2021/12/09 10:00:45;;;;;;;3.95;2.50;;;5.50;99.90;;;;;;5076218;28;20274;-66
2021/12/09 10:03:17;;;;;;;4.20;2.85;;;5.60;99.90;;;;;;5074955;28;20232;-69
2021/12/09 10:05:47;;;;;;;4.80;2.63;;;5.70;99.90;;;;;;5080375;28;20247;-69
2021/12/09 10:08:15;;;;;;;4.03;2.08;;;5.90;99.90;;;;;;5085918;28;20265;-67
2021/12/09 10:10:44;;;;;;;8.30;2.50;;;5.90;99.90;;;;;;5087652;28;20254;-67
2021/12/09 10:13:13;;;;;;;1.92;1.67;;;6.00;99.90;;;;;;5089290;28;20299;-67
2021/12/09 10:15:43;;;;;;;6.40;3.35;;;6.10;99.90;;;;;;5088245;28;20281;-66
2021/12/09 10:18:11;;;;;;;1.42;1.35;;;6.20;99.90;;;;;;5088401;28;20654;-67
2021/12/09 10:20:52;;;;;;;1.80;1.55;;;6.40;99.90;;;;;;5077441;28;20204;-69
2021/12/09 10:23:27;;;;;;;2.85;1.52;;;6.50;99.90;;;;;;5072110;28;20213;-68
2021/12/09 10:26:20;;;;;;;2.35;2.13;;;6.60;99.90;;;;;;5087173;28;20695;-68
2021/12/09 10:28:52;;;;;;;2.60;1.77;;;6.60;99.90;;;;;;5085990;28;20209;-69
2021/12/09 10:31:23;;;;;;;2.97;2.00;;;6.60;99.90;;;;;;5069256;28;20215;-68
2021/12/09 10:34:02;;;;;;;2.00;1.60;;;6.60;99.90;;;;;;5081801;28;20716;-65
2021/12/09 10:36:53;;;;;;;2.47;2.28;;;6.60;99.90;;;;;;5080922;28;20633;-67
2021/12/09 10:39:30;;;;;;;2.47;1.90;;;6.80;99.90;;;;;;5080843;28;20271;-65
2021/12/09 10:41:59;;;;;;;4.10;1.55;;;6.90;99.90;;;;;;5089292;28;20200;-67
2021/12/09 10:44:39;;;;;;;2.78;1.60;;;6.90;99.90;;;;;;5082909;28;20209;-68
2021/12/09 10:47:11;;;;;;;3.20;2.22;;;7.00;99.90;;;;;;5086343;28;20230;-68
2021/12/09 10:49:50;;;;;;;2.00;1.65;;;7.00;99.90;;;;;;5090900;28;20297;-67
2021/12/09 10:52:23;;;;;;;1.80;1.70;;;7.10;99.90;;;;;;5079362;28;20207;-69
2021/12/09 10:54:51;;;;;;;2.03;1.52;;;7.10;99.90;;;;;;5078735;28;20834;-68
2021/12/09 10:57:26;;;;;;;5.75;1.95;;;7.00;99.90;;;;;;5083923;28;20575;-69
2021/12/09 10:59:54;;;;;;;2.10;2.00;;;7.00;99.90;;;;;;5076188;28;20209;-69
2021/12/09 11:02:21;;;;;;;1.83;1.20;;;7.00;99.90;;;;;;5087275;28;20260;-67
2021/12/09 11:05:04;;;;;;;1.95;1.00;;;7.10;99.90;;;;;;5073023;28;20205;-66
2021/12/09 11:07:33;;;;;;;2.85;1.98;;;7.00;99.90;;;;;;5092920;28;20219;-66
2021/12/09 11:10:18;;;;;;;2.40;1.70;;;6.90;99.90;;;;;;5085468;28;20206;-66
2021/12/09 11:12:58;;;;;;;1.60;1.50;;;6.70;99.90;;;;;;5093062;28;20255;-69
2021/12/09 11:15:46;;;;;;;2.20;1.20;;;6.50;99.90;;;;;;5073019;28;20230;-69
2021/12/09 11:18:36;;;;;;;1.92;1.33;;;6.50;99.90;;;;;;5076648;28;20285;-68
2021/12/09 11:21:08;;;;;;;1.55;1.23;;;6.40;99.90;;;;;;5078846;28;20231;-68
2021/12/09 11:23:42;;;;;;;1.88;1.35;;;6.30;99.90;;;;;;5077904;28;20197;-67
2021/12/09 11:26:46;;;;;;;3.42;1.75;;;6.30;99.90;;;;;;5091410;28;20728;-68
2021/12/09 11:29:16;;;;;;;3.60;1.90;;;6.20;99.90;;;;;;5083937;28;20228;-66
2021/12/09 11:31:56;;;;;;;6.35;1.50;;;6.10;99.90;;;;;;5091883;28;20213;-67
2021/12/09 11:34:27;;;;;;;1.23;0.93;;;6.00;99.90;;;;;;5090673;28;20272;-68
2021/12/09 11:36:59;;;;;;;2.20;1.42;;;6.00;99.90;;;;;;5083027;28;20250;-68
2021/12/09 11:39:32;;;;;;;2.33;1.10;;;6.00;99.90;;;;;;5087737;28;20221;-67
2021/12/09 11:42:12;;;;;;;1.40;1.00;;;6.00;99.90;;;;;;5073033;28;20202;-68
2021/12/09 11:44:39;;;;;;;1.60;1.50;;;6.00;99.90;;;;;;5090546;28;20199;-68
2021/12/09 11:47:05;;;;;;;1.63;1.55;;;6.00;99.90;;;;;;5076454;28;20222;-67
2021/12/09 11:49:32;;;;;;;2.17;1.20;;;6.00;99.90;;;;;;5091206;28;20293;-68
2021/12/09 11:51:59;;;;;;;1.38;1.27;;;6.00;99.90;;;;;;5072365;28;20208;-68
2021/12/09 11:54:28;;;;;;;2.13;1.38;;;6.00;99.90;;;;;;5071342;28;20207;-68
2021/12/09 11:57:09;;;;;;;1.27;0.90;;;6.10;99.90;;;;;;5114248;22;20223;-67
2021/12/09 12:11:36;;;;;;;1.15;1.05;;;6.10;99.90;;;;;;5087372;28;20210;-67
2021/12/09 12:14:10;;;;;;;2.25;1.08;;;6.10;99.90;;;;;;5086093;28;20220;-67
2021/12/09 12:19:55;;;;;;;1.95;1.38;;;6.10;99.90;;;;;;5086294;28;20189;-67
2021/12/09 12:22:45;;;;;;;1.17;1.05;;;6.10;99.90;;;;;;5085571;28;20634;-66
2021/12/09 12:26:13;;;;;;;2.13;1.05;;;6.10;99.90;;;;;;5086808;28;20209;-67
2021/12/09 12:29:09;;;;;;;1.30;1.20;;;6.00;99.90;;;;;;5084038;28;20680;-67
2021/12/09 12:34:59;;;;;;;2.67;1.00;;;6.10;99.90;;;;;;5086264;28;20213;-67
2021/12/09 12:40:25;;;;;;;1.15;1.10;;;6.10;99.90;;;;;;5081729;28;20600;-67
2021/12/09 12:42:57;;;;;;;1.10;1.00;;;6.10;99.90;;;;;;5083265;28;20218;-67
2021/12/09 12:45:48;;;;;;;0.55;0.55;;;6.10;99.90;;;;;;5086140;28;20204;-67
2021/12/09 12:51:32;;;;;;;0.98;0.70;;;6.10;99.90;;;;;;5083888;28;20295;-67
2021/12/09 12:54:04;;;;;;;1.77;1.08;;;6.10;99.90;;;;;;5087100;28;20638;-67
2021/12/09 12:56:33;;;;;;;0.80;0.80;;;6.10;99.90;;;;;;5074721;28;20735;-66
2021/12/09 12:59:19;;;;;;;1.30;0.98;;;6.10;99.90;;;;;;5077821;28;20672;-66
2021/12/09 13:02:42;;;;;;;3.80;1.60;;;6.00;99.90;;;;;;5083510;28;20248;-66
2021/12/09 13:05:30;;;;;;;1.73;1.15;;;6.00;99.90;;;;;;5073112;28;20209;-66
2021/12/09 13:08:23;;;;;;;2.15;1.20;;;5.90;99.90;;;;;;5083076;28;20752;-66
2021/12/09 13:11:06;;;;;;;1.88;1.15;;;5.90;99.90;;;;;;5081509;28;20305;-66
2021/12/09 13:13:46;;;;;;;2.35;1.58;;;5.80;99.90;;;;;;5072767;28;20206;-66
2021/12/09 13:16:18;;;;;;;3.30;1.67;;;5.80;99.90;;;;;;5081773;28;20216;-66
2021/12/09 13:19:01;;;;;;;3.50;1.05;;;5.80;99.90;;;;;;5070101;28;20202;-65
2021/12/09 13:21:47;;;;;;;1.70;1.55;;;5.80;99.90;;;;;;5080038;28;20546;-65
2021/12/09 13:24:28;;;;;;;2.22;1.13;;;5.80;99.90;;;;;;5082214;28;20204;-66
2021/12/09 13:27:17;;;;;;;0.85;0.85;;;5.70;99.90;;;;;;5078071;28;20220;-66
2021/12/09 13:29:54;;;;;;;3.30;0.80;;;5.80;99.90;;;;;;5080075;28;20719;-65
2021/12/09 13:32:51;;;;;;;1.80;1.20;;;5.80;99.90;;;;;;5082918;28;20549;-65
2021/12/09 13:35:29;;;;;;;1.88;0.70;;;5.80;99.90;;;;;;5082149;28;20618;-65
2021/12/09 13:38:11;;;;;;;0.82;0.82;;;5.70;99.90;;;;;;5076453;28;20620;-65